Timeline UpdatesTrip UpdatesNews PostsPvt PostsTravel TipsAdmin PostsConv PostsFollowed PostsChat RequestsBlog PostsPNR Posts

Disclaimer
Search
 
 
Tue Sep 16, 2014 12:56:24 ISTHomeTrainsΣChainsAtlasPNRForumGalleryNewsFAQTripsMembersLoginFeedback
No Recent News for this Train
Other Trains in the News **new
Latest...
Train Nos. 56515 Bangalore-Hubli Fast Passenger will be regulated for 40 minutes at KADUR station on 12th June,2013 .
Wed Jun 12, 2013 (05:46PM)
⇐ Return Journey: Train# 56516

56515/Bangalore City - Hubli Passenger (UnReserved)

Time-Table HAS CHANGED.
Sep 03 (12:31PM)
Change Departure Station:
Change Arrival Station:
Post a Train Travel TipPost a Train Travel Tip **new
Post a Comment/Question/Picture/VideoPost a Comment/Question/Picture/Video
Pantry/Catering
✕ NO Pantry Car
✓ Catering Avbl
By enroute vendors
RSA - Rake Sharing
56501/02 Vijayawada Hubli Pass 56503/04 Vijayawada YPR Pass
Rake/Coach Composition
Loco
KJM WDM/G 3A
News    PNR    Forum    Time-Table    Availability    Fare Chart    Map    Arr/Dep History    Trips    Gallery    ΣChains    X/O    Timeline    
Travel Time: 2h 35m    5 halts    Distance: 55 km    Avg Speed: 21 km/hr
Type: Passenger
Zone: SWR/South Western
Departs @ 18:15 (Avg 1h 42m late)
Platform# ???
SMTWTFS
Savanur/SVNR 
Arrives @ 20:50 (Avg 27m late)
Platform# ???
SMTWTFS
Hubli Junction/UBL 

5 halts. 6 intermediate Stations between Savanur and Hubli Junction

Show ALL intermediate Stations  Show Old Time-Table

#CodeStation NameX/OArrivesAvgDepartsAvgHaltPFDay#KmSpeedElevZoneAddress
1SBCBangalore City Junction (10)  -07:45+1101-414.642903mSWRBengaluru-560023, Karnataka
2MWMMalleswaram (2)X  07:49+007:50+01m--1-411.821916mSWRBengaluru, Karnataka
3YPRYesvantpur Junction (6)  08:01 07:58+108:02 08:00+11 2m31-409.048919mSWRBengaluru 560022, Karnataka
4BAWChikbanavar Junction (5)  08:11 08:10+708:12+71 2m31-401.052881mSWRNMGA, Karnataka
5SDVLSoldevanahalli (3)X  08:15-08:16-1m21-398.476865mSWRBengaluru, Karnataka
6GHLGolhalli (3)  08:24+808:25+81m--1-388.399899mSWRState Highway 74, Karnataka
7BNKHBhairanayakanahalli (2)  08:29-08:30-1m21-381.767903mSWRState Highway 74, Karnataka
8DBLDodbeleX  08:34+1008:35+101m31-377.257907mSWRNational Highway 4, Karnataka
9MDLLMuddalingana Halli (2)  08:41-08:42-1m--1-371.575891mSWRNH 207, Karnataka
10NDVNidvanda (3)  08:46 08:45+1108:47 08:46+111m21-367.762912mSWRNH 207, Karnataka
11DBSDobbspet (2)  08:50 08:49-08:51 08:50-1m11-364.662917mSWRTumkur Dist., Karnataka
12HHLHirehaliX  09:00 08:58+1009:01 08:59+111m21-356.336848mSWRNH 4, Karnataka
13KIATKyatsandra (4)O  09:09+909:10+101m--1-350.339841mSWRTumkur, Karnataka
14TKTumkur (3)  09:34 09:18+109:35 09:20+41 2m--1-345.192823mSWRTumkur, Karnataka
15HEIHeggere Halt (1)X  09:40 09:24-09:41 09:25-1m11-338.936804mSWRHeggere, Karnataka
16MLSAMallasandra (2)  09:45 09:31+1609:46 09:32+181m--1-335.350802mSWRTumkur., Karnataka
17GBBGubbi (1)  09:59 09:42+1910:00 09:43+221m11-327.062780mSWRGubbi, Karnataka
18NTRNittur (1)X  10:14 09:52+2110:15 09:53+221m11-317.774789mSWRNH 206, Karnataka
19SPGRSampige Road (2)  10:24 10:02+2210:25 10:03+221m--1-306.658831mSWRTumkur, Karnataka
20AMSAAmmasandra (1)  10:32 10:09+2210:33 10:10+221m11-300.849858mSWRTumkur Dist., Karnataka
21BSNBanasandra (1)  10:41 10:17+2110:42 10:18+211m11-295.149851mSWRTumkur Dist., Karnataka
22ARGPAralaguppe  10:47 10:24-10:48 10:25-1m--1-290.235843mSWRState Highway 74, Karnataka
23RDIKardi  10:57 10:34+1810:58 10:35+181m--1-284.981843mSWRKaradi Cross, Karnataka
24BNKBanashankari Halt  11:02 10:39-11:03 10:40-1m--1-279.525849mSWRNational Highway 206, Karnataka
25TTRTiptur (4)  11:19 10:53+1311:20 10:55+151 2m--1-274.046860mSWRTiptur, Karnataka
26SSNHSree Saradanagar Hal (1)  11:24 10:58-11:25 10:59-1m11-271.744876mSWRTiptur, Karnataka
27HVLHonnavalli Road (3)X  11:34 11:09+1911:35 11:10+271m--1-264.447888mSWRNational Highway 206, Karnataka
28ADHLAdihalli (1)  11:39 11:16+3111:40 11:17+311m11-259.620870mSWRNational Highway 206, Karnataka
29ASKArsikere Junction (3)X  12:09 11:50+1512:10 11:55+181 5m--1-248.567816mSWRArsikere, Karnataka
30BVRBanavar (2)  12:24 12:09+1912:25 12:10+191m--1-233.047790mSWRNH 73, Karnataka
31VNRDevanur (2)  12:34 12:19+2212:35 12:20+231m--1-225.967757mSWRDevanur Railway Station, Karnataka
32BLKRBallekere Halt  12:44 12:29+2712:45 12:30+271m--1-215.839780mSWRNational Highway 206, Karnataka
33DRUKadur Junction (3)  12:54 12:40+2812:55 12:42+281 2m--1-209.422774mSWRKadur, Karnataka
34RRBBirur Junction (3)  13:09 12:58+2413:10 13:00+251 2m--1-203.569802mSWRBirur, Karnataka
35NVFNagavangala  13:20 13:09+3213:21 13:10+321m--1-193.242809mSWRMelanahalli Rd, Karnataka
36AJPAjjampur (2)X  13:30 13:21+3513:31 13:22+361m--1-185.454752mSWRAjjampur, Karnataka
37SHVShivani  13:42 13:34+4013:43 13:35+491m--1-174.743779mSWRShivani Rd, Karnataka
38HSDHosdurga Road (1)  13:54 13:49+5113:55 13:50+511m11-164.746765mSWRChitradurga Dist., Karnataka
39ABGTArbagatta Halt  13:59 13:55-14:00 13:56-1m--1-160.933735mSWRState Highway 47, Karnataka
40RGIRamgiriX  14:12 14:09+4914:13 14:10+571m--1-153.739705mSWRShivani Rd, Karnataka
41HLKHolalkere  14:24+5714:25+581m--1-144.730661mSWRNational Highway 13, Karnataka
42JRUChikjajur Junction (3)  14:54 14:45+4114:55 14:50+521 5m--1-134.865677mSWRChikkajajur, Karnataka
43SLUSasalu  15:05 14:59+1:0115:06 15:00+1:011m--1-125.053660mSWRState Highway 47, Karnataka
44MYKMayakonda (2)  15:14 15:09+1:0215:15 15:10+1:031m--1-117.055646mSWRState Highway 47, Karnataka
45KAGKodaganurX  15:24 15:19+1:0415:25 15:20+1:091m--1-108.871633mSWRState Highway 47, Karnataka
46HNHHanumanahalli  15:29 15:24-15:30 15:25-1m--1-104.040621mSWRHiretogaleri, Karnataka
47THNTolahunse (2)  15:39 15:34+1:1915:40 15:35+1:251m--1-98.047614mSWRTholahunase, Karnataka
48DVGDavangere (2)X  16:28 15:47+4716:30 15:50+482 3m--1-88.622598mSWRDavanagere, Karnataka
49HRRHarihar (3)  16:59 16:25+4317:00 16:30+501 5m--1-75.854553mSWRHarihar, Karnataka
50CLIChalgeri (2)X  17:11 16:41+5517:12 16:42+561m--1-65.847574mSWRChalageri, Karnataka
51RNRRanibennur (3)  17:26 16:59+4317:27 17:00+471m--1-52.445583mSWRRanebennur, Karnataka
52DADDevargudda (2)X  17:37 17:11+5417:38 17:12+541m--1-44.251589mSWRDevaragudda, Karnataka
53BYDByadgi (2)  17:47 17:24+1:1217:48 17:25+1:161m--1-33.947632mSWRNational Highway 4, Karnataka
54HVRHaveri (3)  18:04 17:43+1:1518:05 17:45+1:291 2m--1-19.948558mSWRHaveri, Karnataka
55KJGKarajgi (2)  18:14 17:54+1:3218:15 17:55+1:381m--1-12.666550mSWRhaveri, Karnataka
56KVSKalsur  18:19 17:59-18:20 18:00-1m--1-8.235541mSWRNH 48, Karnataka
57SVNR»Savanur (2)»X  18:34 18:14+1:3718:35 18:15+1:421m--10.037584mSWRState Highway 6, Karnataka
58YLGYalvigi (2)X  18:44 18:29+1:4318:45 18:30+1:431m--18.591621mSWRYalvigi, Karnataka
59KALSKalas Halt  18:49 18:34-18:50 18:35-1m--114.623663mSWRState Highway 6, Karnataka
60GDIGudgeri (2)  19:01 18:49+1:4119:02 18:50+2:021m--120.035689mSWRGudgeri, Karnataka
61SNHSaunshi (2)X  19:13 19:09+2:0219:15 19:10+2:032 1m--131.236634mSWRSaunshi, Karnataka
62KNOKundgol (2)X  19:28 19:24+2:0119:30 19:25+2:032 1m--139.611636mSWRKundgol, Karnataka
63UBL•Hubli Junction (5)•  20:20 20:50+27---155.3-640mSWRHubli - 580020, Karnataka
Scroll to Top
Scroll to Bottom